Detall de PIREP

Printer-friendly versionPDF version

[2010/07/04 09:26:00]
Flight IATA:CT2102
Pilot Number:042
Company ICAO:CAT
Aircraft Type:B738/F
PAX:120
Departing Airport: LEVC
Destination Airport: LEBZ
Alternate Airport:LEMD
Online: VATSIM
Route:CLS UN733 CJN UN975 CCS
Flight Level:FL270
No Slew and time accel
No pause
Crash detect
Detect pilot in Cockpit between each 30 and 45 minutes
09:26 Zero fuel Weight: 118700 Lbs, Fuel Weight: 45976 Lbs
09:26 VATSIM:LEVC 040900Z 07009KT CAVOK 27/20 Q1020 NOSIG
09:26 VATSIM:LEBZ 040900Z 05006KT 020V110 CAVOK 28/17 Q1018
09:26 VOICE CATALONIAN
09:37 Parking Brakes off
09:48 Take-off
09:48 Take off Weight: 163810 Lbs
09:48 Wind: 073 @ 008 Knots Heading: 113
09:48 POS N39 29 00 W000 27 57
09:48 Gear Up: 182 Knots
09:48 Flaps:3 at 182 Knots
09:48 Flaps:2 at 191 Knots
09:49 Flaps:1 at 151 Knots
09:50 Flaps:0 at 228 Knots
10:03 Wind:349@024 Knots Heading: 301 Gr
ound Speed: 441 Knots Altitude 26200 ft
10:06 TOC
10:06 Fuel Weight: 41356 Lb
10:18 Wind:037@036 Knots Heading: 256 Ground Speed: 494 Knots Altitude 27286 ft
10:26 TOD
10:26 Fuel Weight: 38968 Lb
10:33 Wind:057@023 Knots Heading: 256 Ground Speed: 351 Knots Altitude 18166 ft
10:40 Flaps:1 at 214 Knots
10:43 Flaps:2 at 188 Knots
10:44 Flaps:3 at 179 Knots
10:45 Flaps:4 at 170 Knots
10:46 Flaps:5 at 168 Knots
10:47 Flaps:6 at 159 Knots
10:48 Wind:104@005 Knots Heading: 304 Ground Speed: 176 Knots Altitude 3198 ft
10:48 Gear Down: 160 Knots
10:48 Flaps:7 at 158 Knots
10:49 Flaps:8 at 161 Knots
10:52 TouchDown:Rate -443 ft/min Speed: 143 Knots
10:52 VATSIM:LEBZ 041000Z 09005KT 050V140 CAVOK 31/16 Q1018
10:52 Land
10:52 Wind:098@005 Knots
10:52 Heading: 306
10:52 Flight Duration: 01:04
10:52 Landing Weight: 155759 Lbs
10:52 POS N38 53 32 W006 4
9 23
10:56 Parking brakes on
10:56 Block to Block Duration: 01:19
10:56 Final Fuel: 36732 Lbls
10:56 Spent Fuel: 9243 Lbls
10:56 Flight Length: 392 NM
10:56 TOD Land Length: 120 NM

Exportar CSV

Powered by Drupal - Modified by Danger4k